Riceville, Indiana
Current Conditions -  °F | °C
As of 8:35 AM on Tuesday 27 Jan 2015 (Local Time) from KHNB Reporting Station
Overcast Overcast  
Wind Chill: 30°   Ceiling: 300
Heat Index: 30°   Visibility: 1.5mi
Dew Point: 27°   Wind: 0mph
Humidity: 86%   Direction: NA
Pressure: 30.06"   Gusts: NA
Location:  38.2817°N, 86.7167°W
Report Text: KHNB 271435Z AUTO 00000KT 1 1/2SM OVC003 M01/M03 A3006 RMK AO1
Loading
Personal Weather Stations






























Interactive Weather Map New forecast layout! Learn more

10-Day Weather Forecast

Advertisements
Track Severe Weather on mobile